Time;durP1;ratioP1;P1;durP2;ratioP2;P2;SDS_P1;SDS_P2;PMS_P1;PMS_P2;Temp;Humidity;BMP_temperature;BMP_pressure;BME280_temperature;BME280_humidity;BME280_pressure;Samples;Min_cycle;Max_cycle;Signal;HPM_P1;HPM_P2
2022/05/22 00:00:28;;;;;;;;;;;;;;;16.61;52.05;100837.19;5008289;28;7066;-74
2022/05/22 00:02:54;;;;;;;;;;;;;;;16.57;52.11;100845.69;5005453;28;6879;-74
2022/05/22 00:05:23;;;;;;;;;;;;;;;16.51;52.09;100845.50;5003538;28;6800;-74
2022/05/22 00:07:49;;;;;;;;;;;;;;;16.45;52.30;100843.59;5002386;28;7133;-74
2022/05/22 00:10:15;;;;;;;;;;;;;;;16.41;52.21;100836.56;5004775;28;6815;-74
2022/05/22 00:12:42;;;;;;;;;;;;;;;16.37;52.64;100824.38;5004956;28;7315;-74
2022/05/22 00:15:12;;;;;;;;;;;;;;;16.35;52.48;100818.28;5001866;28;6847;-74
2022/05/22 00:17:38;;;;;;;;;;;;;;;16.33;52.46;100815.63;5002187;28;6808;-74
2022/05/22 00:20:05;;;;;;;;;;;;;;;16.30;52.66;100805.22;5002833;28;7967;-74
2022/05/22 00:22:32;;;;;;;;;;;;;;;16.25;52.94;100804.19;5005455;28;6819;-74
2022/05/22 00:24:57;;;;;;;;;;;;;;;16.20;52.45;100804.03;5002680;28;6812;-74
2022/05/22 00:27:23;;;;;;;;;;;;;;;16.14;52.44;100790.03;5002302;28;6787;-74
2022/05/22 00:29:49;;;;;;;;;;;;;;;16.10;52.55;100791.66;4987037;28;6887;-74
2022/05/22 00:32:15;;;;;;;;;;;;;;;16.07;53.11;100796.72;5003254;28;6792;-74
2022/05/22 00:34:41;;;;;;;;;;;;;;;16.04;53.00;100797.50;5004328;28;6791;-74
2022/05/22 00:37:06;;;;;;;;;;;;;;;16.02;53.48;100806.03;5008371;28;7184;-74
2022/05/22 00:39:34;;;;;;;;;;;;;;;15.99;53.54;100803.34;5007627;28;6875;-74
2022/05/22 00:42:01;;;;;;;;;;;;;;;15.94;53.34;100806.69;5010731;28;6816;-74
2022/05/22 00:44:27;;;;;;;;;;;;;;;15.91;53.11;100805.69;5009903;28;6958;-74
2022/05/22 00:46:53;;;;;;;;;;;;;;;15.87;53.41;100807.28;5008362;28;6807;-74
2022/05/22 00:49:29;;;;;;;;;;;;;;;15.83;53.63;100802.81;5009575;28;6890;-74
2022/05/22 00:52:03;;;;;;;;;;;;;;;15.80;53.34;100802.72;5010599;28;6807;-74
2022/05/22 00:54:53;;;;;;;;;;;;;;;15.77;53.02;100800.03;5007268;28;6808;-74
2022/05/22 00:57:25;;;;;;;;;;;;;;;15.70;53.45;100798.97;5008023;28;6827;-74
2022/05/22 01:00:04;;;;;;;;;;;;;;;15.67;53.93;100801.44;5011025;28;6856;-74
2022/05/22 01:03:26;;;;;;;;;;;;;;;15.62;53.90;100798.69;5009852;28;7170;-74
2022/05/22 01:05:18;;;;;;;;;;;;;;;15.60;53.87;100815.00;4999708;28;6912;-74
2022/05/22 01:07:45;;;;;;;;;;;;;;;15.57;53.93;100815.75;5006555;28;7916;-74
2022/05/22 01:10:12;;;;;;;;;;;;;;;15.54;53.67;100818.22;5009799;28;6803;-74
2022/05/22 01:12:42;;;;;;;;;;;;;;;15.50;53.91;100818.94;5011369;28;7904;-74
2022/05/22 01:15:12;;;;;;;;;;;;;;;15.46;54.30;100814.53;4995806;28;6816;-74
2022/05/22 01:17:42;;;;;;;;;;;;;;;15.40;53.84;100810.00;5011467;28;6887;-74
2022/05/22 01:20:08;;;;;;;;;;;;;;;15.38;54.51;100815.13;5008673;28;7235;-74
2022/05/22 01:22:35;;;;;;;;;;;;;;;15.36;54.81;100814.19;5010078;28;7150;-74
2022/05/22 01:25:01;;;;;;;;;;;;;;;15.33;54.08;100800.28;5007601;28;7136;-74
2022/05/22 01:27:28;;;;;;;;;;;;;;;15.31;54.99;100791.63;5009671;28;8063;-74
2022/05/22 01:30:13;;;;;;;;;;;;;;;15.29;54.37;100794.13;5009315;28;6795;-74
2022/05/22 01:32:43;;;;;;;;;;;;;;;15.27;54.48;100796.66;5009995;28;6808;-74
2022/05/22 01:35:12;;;;;;;;;;;;;;;15.25;54.64;100797.41;5009058;28;6808;-74
2022/05/22 01:37:37;;;;;;;;;;;;;;;15.22;54.39;100797.31;5024250;28;6822;-74
2022/05/22 01:40:04;;;;;;;;;;;;;;;15.19;54.28;100802.38;5019491;28;7207;-74
2022/05/22 01:42:30;;;;;;;;;;;;;;;15.17;54.55;100793.72;5002071;28;6868;-74
2022/05/22 01:44:56;;;;;;;;;;;;;;;15.11;54.95;100784.91;5008871;28;7092;-74
2022/05/22 01:47:21;;;;;;;;;;;;;;;15.10;54.61;100780.59;5004093;28;6862;-74
2022/05/22 01:49:47;;;;;;;;;;;;;;;15.10;54.27;100788.31;5005190;28;6799;-74
2022/05/22 01:52:13;;;;;;;;;;;;;;;15.10;54.26;100775.41;5006693;28;6874;-74
2022/05/22 01:54:38;;;;;;;;;;;;;;;15.09;55.33;100778.81;5003838;28;6803;-74
2022/05/22 01:57:04;;;;;;;;;;;;;;;15.10;54.68;100778.00;5004374;28;6788;-74
2022/05/22 01:59:30;;;;;;;;;;;;;;;15.09;54.86;100776.25;5007976;28;6787;-74
2022/05/22 02:01:55;;;;;;;;;;;;;;;15.08;54.56;100779.66;5004411;28;6795;-74
2022/05/22 02:04:21;;;;;;;;;;;;;;;15.06;54.47;100776.13;4986916;28;6883;-74
2022/05/22 02:09:31;;;;;;;;;;;;;;;14.99;54.78;100769.88;5006600;28;6828;-74
2022/05/22 02:11:57;;;;;;;;;;;;;;;14.98;55.17;100756.94;4986625;28;6896;-74
2022/05/22 02:14:22;;;;;;;;;;;;;;;14.97;55.47;100747.44;5004845;28;6862;-74
2022/05/22 02:16:48;;;;;;;;;;;;;;;14.95;54.96;100747.38;5005921;28;7169;-74
2022/05/22 02:19:14;;;;;;;;;;;;;;;14.94;55.63;100744.72;5004919;28;6800;-74
2022/05/22 02:21:39;;;;;;;;;;;;;;;14.92;54.95;100741.22;5004005;28;7183;-73
2022/05/22 02:24:05;;;;;;;;;;;;;;;14.90;55.39;100742.88;5005736;28;6811;-73
2022/05/22 02:26:31;;;;;;;;;;;;;;;14.86;55.40;100734.13;5004279;28;7350;-73
2022/05/22 02:28:57;;;;;;;;;;;;;;;14.83;55.46;100742.63;4981535;28;7083;-73
2022/05/22 02:31:22;;;;;;;;;;;;;;;14.80;55.44;100742.53;5004419;28;6994;-73
2022/05/22 02:33:48;;;;;;;;;;;;;;;14.77;55.74;100742.41;5003890;28;6883;-74
2022/05/22 02:36:14;;;;;;;;;;;;;;;14.74;54.88;100741.44;5005641;28;6938;-74
2022/05/22 02:38:41;;;;;;;;;;;;;;;14.69;55.23;100742.09;4999970;28;6779;-74
2022/05/22 02:41:20;;;;;;;;;;;;;;;14.67;54.86;100740.28;5020360;28;6970;-74
2022/05/22 02:43:46;;;;;;;;;;;;;;;14.62;55.01;100740.09;5005910;28;6823;-74
2022/05/22 02:46:15;;;;;;;;;;;;;;;14.59;55.56;100737.44;5004805;28;7215;-74
2022/05/22 02:48:42;;;;;;;;;;;;;;;14.56;54.68;100742.47;5006416;28;6800;-74
2022/05/22 02:51:15;;;;;;;;;;;;;;;14.50;55.48;100725.09;5000766;28;6996;-74
2022/05/22 02:53:41;;;;;;;;;;;;;;;14.47;55.52;100722.38;5006255;28;6879;-74
2022/05/22 02:56:10;;;;;;;;;;;;;;;14.45;55.41;100721.44;4987613;28;6812;-74
2022/05/22 02:58:35;;;;;;;;;;;;;;;14.45;56.17;100721.44;4992785;28;7150;-74
2022/05/22 03:01:01;;;;;;;;;;;;;;;14.44;55.60;100723.16;5001799;28;6863;-74
2022/05/22 03:03:27;;;;;;;;;;;;;;;14.45;55.72;100718.84;5003061;28;7106;-74
2022/05/22 03:08:37;;;;;;;;;;;;;;;14.43;56.23;100711.06;5007455;28;6903;-74
2022/05/22 03:11:06;;;;;;;;;;;;;;;14.43;56.58;100718.78;5004673;28;6811;-74
2022/05/22 03:13:33;;;;;;;;;;;;;;;14.42;56.00;100713.59;5001594;28;7036;-74
2022/05/22 03:15:59;;;;;;;;;;;;;;;14.40;55.63;100721.25;5001588;28;6975;-74
2022/05/22 03:18:25;;;;;;;;;;;;;;;14.37;56.32;100720.25;4978831;28;6800;-74
2022/05/22 03:20:51;;;;;;;;;;;;;;;14.36;56.30;100718.50;5002568;28;7047;-74
2022/05/22 03:23:17;;;;;;;;;;;;;;;14.33;55.86;100706.38;5006739;28;6812;-74
2022/05/22 03:25:46;;;;;;;;;;;;;;;14.32;55.60;100706.34;5005662;28;6800;-74
2022/05/22 03:28:14;;;;;;;;;;;;;;;14.30;56.04;100708.84;4978179;28;6804;-74
2022/05/22 03:30:40;;;;;;;;;;;;;;;14.29;56.53;100699.38;5004022;28;6871;-74
2022/05/22 03:33:06;;;;;;;;;;;;;;;14.28;56.37;100702.75;5000250;28;6883;-74
2022/05/22 03:35:32;;;;;;;;;;;;;;;14.26;56.81;100702.69;5003644;28;6812;-74
2022/05/22 03:37:58;;;;;;;;;;;;;;;14.26;56.00;100705.28;5006733;28;6803;-74
2022/05/22 03:40:25;;;;;;;;;;;;;;;14.25;56.27;100705.25;4996508;28;6874;-74
2022/05/22 03:42:51;;;;;;;;;;;;;;;14.25;55.87;100706.09;5003417;28;6804;-74
2022/05/22 03:45:17;;;;;;;;;;;;;;;14.24;56.09;100701.75;5000341;28;7181;-74
2022/05/22 03:47:42;;;;;;;;;;;;;;;14.23;55.88;100700.00;5002394;28;6795;-74
2022/05/22 03:50:12;;;;;;;;;;;;;;;14.22;56.24;100700.84;5002758;28;7093;-74
2022/05/22 03:52:43;;;;;;;;;;;;;;;14.20;55.96;100692.19;4999741;28;7117;-74
2022/05/22 03:55:13;;;;;;;;;;;;;;;14.22;55.92;100687.06;4995402;28;6800;-74
2022/05/22 03:57:39;;;;;;;;;;;;;;;14.20;56.07;100681.88;5000926;28;6820;-74
2022/05/22 04:00:09;;;;;;;;;;;;;;;14.21;57.09;100683.63;5002876;28;6818;-74
2022/05/22 04:02:35;;;;;;;;;;;;;;;14.21;56.73;100683.63;4976487;28;7292;-74
2022/05/22 04:05:03;;;;;;;;;;;;;;;14.21;56.13;100683.63;5000399;28;7078;-74
2022/05/22 04:07:29;;;;;;;;;;;;;;;14.23;56.69;100688.81;5001233;28;7194;-74
2022/05/22 04:09:56;;;;;;;;;;;;;;;14.23;56.79;100679.38;5001920;28;6844;-74
2022/05/22 04:12:22;;;;;;;;;;;;;;;14.25;56.59;100692.34;5004740;28;6831;-74
2022/05/22 04:14:48;;;;;;;;;;;;;;;14.25;57.33;100690.63;4986329;28;6812;-74
2022/05/22 04:17:14;;;;;;;;;;;;;;;14.29;56.29;100686.47;5000635;28;6805;-74
2022/05/22 04:19:39;;;;;;;;;;;;;;;14.32;56.96;100678.84;4994095;28;7750;-74
2022/05/22 04:22:06;;;;;;;;;;;;;;;14.40;57.51;100679.16;5001488;28;6983;-74
2022/05/22 04:27:16;;;;;;;;;;;;;;;14.61;57.91;100688.47;5003788;28;7144;-74
2022/05/22 04:29:42;;;;;;;;;;;;;;;14.72;58.25;100693.22;5005192;28;6804;-74
2022/05/22 04:32:08;;;;;;;;;;;;;;;14.89;58.24;100694.66;4994842;28;6835;-74
2022/05/22 04:34:34;;;;;;;;;;;;;;;15.10;58.32;100687.66;4999889;28;6796;-74
2022/05/22 04:36:59;;;;;;;;;;;;;;;15.38;59.13;100680.81;4998525;28;7089;-74
2022/05/22 04:39:25;;;;;;;;;;;;;;;15.69;59.80;100680.91;4998302;28;6791;-74
2022/05/22 04:41:51;;;;;;;;;;;;;;;16.01;59.46;100685.38;5000414;28;6875;-74
2022/05/22 04:44:17;;;;;;;;;;;;;;;16.31;59.36;100685.41;5000279;28;6776;-74
2022/05/22 04:46:42;;;;;;;;;;;;;;;16.67;59.60;100694.16;4995727;28;6799;-74
2022/05/22 04:49:08;;;;;;;;;;;;;;;17.02;59.20;100694.28;4999818;28;6922;-74
2022/05/22 04:51:34;;;;;;;;;;;;;;;17.37;59.10;100684.75;5005564;28;6780;-75
2022/05/22 04:53:59;;;;;;;;;;;;;;;17.69;58.85;100684.66;5002359;28;6800;-74
2022/05/22 04:56:26;;;;;;;;;;;;;;;18.00;57.78;100683.63;5004624;28;7146;-74
2022/05/22 04:58:51;;;;;;;;;;;;;;;18.31;57.28;100678.25;4996586;28;7277;-74
2022/05/22 05:01:19;;;;;;;;;;;;;;;18.57;56.62;100680.50;4999576;28;7185;-74
2022/05/22 05:03:45;;;;;;;;;;;;;;;18.78;55.64;100668.78;5000119;28;7556;-74
2022/05/22 05:06:10;;;;;;;;;;;;;;;18.97;56.11;100669.97;4999075;28;7163;-74
2022/05/22 05:08:36;;;;;;;;;;;;;;;19.19;55.71;100668.66;5001151;28;6936;-74
2022/05/22 05:11:02;;;;;;;;;;;;;;;19.43;55.89;100664.72;5001525;28;6871;-74
2022/05/22 05:13:28;;;;;;;;;;;;;;;19.66;55.36;100666.78;5000476;28;6934;-75
2022/05/22 05:16:10;;;;;;;;;;;;;;;19.95;56.40;100672.44;5002396;28;7140;-75
2022/05/22 05:18:38;;;;;;;;;;;;;;;20.30;56.43;100676.34;5004044;28;6803;-75
2022/05/22 05:21:11;;;;;;;;;;;;;;;20.67;54.82;100678.50;4963345;28;7247;-75
2022/05/22 05:23:37;;;;;;;;;;;;;;;20.97;53.33;100674.47;4991963;28;7166;-75
2022/05/22 05:26:04;;;;;;;;;;;;;;;21.17;52.66;100674.66;5002880;28;7034;-75
2022/05/22 05:28:31;;;;;;;;;;;;;;;21.31;51.83;100668.69;4991459;28;6982;-75
2022/05/22 05:30:56;;;;;;;;;;;;;;;21.41;51.21;100659.22;4987449;28;6875;-75
2022/05/22 05:33:22;;;;;;;;;;;;;;;21.51;50.28;100661.03;4995974;28;6795;-75
2022/05/22 05:35:48;;;;;;;;;;;;;;;21.56;49.99;100667.13;5006799;28;6792;-75
2022/05/22 05:38:14;;;;;;;;;;;;;;;21.61;49.91;100665.44;4989867;28;6804;-75
2022/05/22 05:40:41;;;;;;;;;;;;;;;21.68;49.70;100660.28;4999298;28;8033;-75
2022/05/22 05:43:07;;;;;;;;;;;;;;;21.74;49.26;100660.31;5002417;28;6884;-75
2022/05/22 05:45:34;;;;;;;;;;;;;;;21.77;49.13;100663.81;5005201;28;6784;-75
2022/05/22 05:47:59;;;;;;;;;;;;;;;21.77;48.65;100666.44;5008179;28;6813;-75
2022/05/22 05:50:26;;;;;;;;;;;;;;;21.70;48.34;100664.63;4999449;28;7174;-75
2022/05/22 05:52:56;;;;;;;;;;;;;;;21.61;47.96;100667.16;4976428;28;6875;-75
2022/05/22 05:55:24;;;;;;;;;;;;;;;21.44;47.41;100670.53;5005451;28;6883;-75
2022/05/22 05:57:50;;;;;;;;;;;;;;;21.26;47.43;100668.66;4983431;28;6958;-75
2022/05/22 06:00:21;;;;;;;;;;;;;;;21.08;47.48;100674.59;5007473;28;6808;-75
2022/05/22 06:02:47;;;;;;;;;;;;;;;20.92;48.04;100684.84;5008395;28;6979;-75
2022/05/22 06:05:13;;;;;;;;;;;;;;;20.81;47.59;100678.63;5005119;28;6887;-75
2022/05/22 06:07:39;;;;;;;;;;;;;;;20.69;48.11;100679.38;5007350;28;6879;-75
2022/05/22 06:10:09;;;;;;;;;;;;;;;20.59;48.39;100675.81;5008054;28;6788;-75
2022/05/22 06:12:34;;;;;;;;;;;;;;;20.50;48.39;100681.78;5005164;28;6803;-75
2022/05/22 06:15:00;;;;;;;;;;;;;;;20.43;48.29;100672.16;5003241;28;6909;-75
2022/05/22 06:17:36;;;;;;;;;;;;;;;20.35;48.26;100677.25;5003209;28;6784;-75
2022/05/22 06:20:07;;;;;;;;;;;;;;;20.32;48.61;100673.75;5004213;28;7080;-75
2022/05/22 06:22:34;;;;;;;;;;;;;;;20.29;48.46;100677.22;5001771;28;6880;-75
2022/05/22 06:25:05;;;;;;;;;;;;;;;20.29;48.82;100677.22;4994181;28;7374;-75
2022/05/22 06:27:31;;;;;;;;;;;;;;;20.33;48.99;100675.50;4998699;28;6811;-75
2022/05/22 06:29:57;;;;;;;;;;;;;;;20.37;48.86;100679.91;5020855;28;7156;-75
2022/05/22 06:32:22;;;;;;;;;;;;;;;20.39;48.90;100673.84;5000508;28;6883;-75
2022/05/22 06:34:49;;;;;;;;;;;;;;;20.46;49.02;100674.81;5000619;28;6807;-75
2022/05/22 06:37:20;;;;;;;;;;;;;;;20.51;48.89;100674.84;5001827;28;7211;-75
2022/05/22 06:39:50;;;;;;;;;;;;;;;20.60;49.05;100668.84;5003992;28;6876;-75
2022/05/22 06:42:30;;;;;;;;;;;;;;;20.66;48.94;100669.78;4983926;28;6884;-75
2022/05/22 06:45:07;;;;;;;;;;;;;;;20.73;48.94;100669.88;5016874;28;6886;-74
2022/05/22 06:47:34;;;;;;;;;;;;;;;20.80;48.69;100671.69;5005366;28;6840;-74
2022/05/22 06:50:04;;;;;;;;;;;;;;;20.85;48.61;100669.16;5003567;28;6810;-75
2022/05/22 06:52:32;;;;;;;;;;;;;;;20.87;48.73;100667.44;5005079;28;7209;-75
2022/05/22 06:54:59;;;;;;;;;;;;;;;20.92;48.97;100671.81;5001974;28;6792;-75
2022/05/22 06:57:26;;;;;;;;;;;;;;;20.98;48.87;100671.00;4978749;28;6968;-75
2022/05/22 06:59:58;;;;;;;;;;;;;;;21.09;49.46;100663.31;4996245;28;6888;-74
2022/05/22 07:02:27;;;;;;;;;;;;;;;21.31;49.43;100658.25;5002453;28;7064;-74
2022/05/22 07:04:57;;;;;;;;;;;;;;;21.65;48.97;100655.91;4997277;28;6808;-74
2022/05/22 07:07:24;;;;;;;;;;;;;;;21.99;49.12;100660.47;5000485;28;6804;-74
2022/05/22 07:09:49;;;;;;;;;;;;;;;22.38;48.65;100660.59;5004051;28;6804;-74
2022/05/22 07:12:16;;;;;;;;;;;;;;;22.82;48.41;100661.59;5005599;28;6803;-74
2022/05/22 07:14:42;;;;;;;;;;;;;;;23.27;48.04;100662.50;4999861;28;6899;-74
2022/05/22 07:17:11;;;;;;;;;;;;;;;23.66;47.58;100653.78;5001130;28;6796;-74
2022/05/22 07:19:37;;;;;;;;;;;;;;;24.00;46.86;100651.91;4980553;28;7122;-74
2022/05/22 07:22:07;;;;;;;;;;;;;;;24.34;46.14;100655.31;5002970;28;6879;-74
2022/05/22 07:24:34;;;;;;;;;;;;;;;24.64;46.18;100650.78;4999159;28;6800;-74
2022/05/22 07:27:01;;;;;;;;;;;;;;;24.93;45.36;100644.47;4985931;28;7117;-74
2022/05/22 07:29:27;;;;;;;;;;;;;;;25.24;44.61;100650.31;5005023;28;7014;-74
2022/05/22 07:31:54;;;;;;;;;;;;;;;25.54;44.57;100646.56;4995290;28;6970;-74
2022/05/22 07:34:21;;;;;;;;;;;;;;;25.82;44.12;100641.91;5000931;28;6974;-74
2022/05/22 07:36:49;;;;;;;;;;;;;;;26.08;43.16;100632.84;5003819;28;7181;-75
2022/05/22 07:39:14;;;;;;;;;;;;;;;26.31;42.85;100635.16;5001429;28;6986;-75
2022/05/22 07:41:40;;;;;;;;;;;;;;;26.50;41.98;100639.31;5001267;28;6796;-75
2022/05/22 07:44:06;;;;;;;;;;;;;;;26.60;41.23;100636.50;4988144;28;6887;-75
2022/05/22 07:46:31;;;;;;;;;;;;;;;26.62;40.85;100644.38;4997893;28;6803;-75
2022/05/22 07:48:57;;;;;;;;;;;;;;;26.61;40.72;100640.91;5002167;28;7915;-75
2022/05/22 07:51:23;;;;;;;;;;;;;;;26.64;40.13;100634.72;5001110;28;6883;-75
2022/05/22 07:53:51;;;;;;;;;;;;;;;26.59;39.98;100631.31;4999197;28;6827;-75
2022/05/22 07:56:21;;;;;;;;;;;;;;;26.53;39.95;100629.63;4999504;28;6868;-75
2022/05/22 07:58:47;;;;;;;;;;;;;;;26.47;39.51;100627.97;5003682;28;6812;-75
2022/05/22 08:01:13;;;;;;;;;;;;;;;26.41;39.42;100619.28;4998575;28;6808;-75
2022/05/22 08:03:39;;;;;;;;;;;;;;;26.37;39.42;100612.34;5011163;28;6966;-75
2022/05/22 08:06:04;;;;;;;;;;;;;;;26.34;39.31;100608.00;4998731;28;6784;-75
2022/05/22 08:08:31;;;;;;;;;;;;;;;26.28;39.11;100606.34;5001981;28;6788;-75
2022/05/22 08:10:58;;;;;;;;;;;;;;;26.25;39.13;100608.13;4993445;28;6888;-75
2022/05/22 08:13:25;;;;;;;;;;;;;;;26.24;38.85;100612.53;5003888;28;6950;-75
2022/05/22 08:15:51;;;;;;;;;;;;;;;26.26;38.47;100612.50;4999912;28;6892;-74
2022/05/22 08:18:16;;;;;;;;;;;;;;;26.30;38.34;100611.56;4987856;28;7623;-74
2022/05/22 08:20:44;;;;;;;;;;;;;;;26.35;38.28;100615.00;4998973;28;7220;-74
2022/05/22 08:23:20;;;;;;;;;;;;;;;26.48;37.96;100602.53;5005964;28;6804;-74
2022/05/22 08:25:48;;;;;;;;;;;;;;;26.64;37.88;100600.53;4997149;28;6815;-74
2022/05/22 08:28:14;;;;;;;;;;;;;;;26.78;37.67;100595.06;4981167;28;7742;-75
2022/05/22 08:30:42;;;;;;;;;;;;;;;27.08;37.67;100584.09;4995321;28;7188;-75
2022/05/22 08:33:07;;;;;;;;;;;;;;;27.54;37.09;100591.16;5002471;28;6796;-75
2022/05/22 08:35:40;;;;;;;;;;;;;;;27.91;36.82;100580.75;4999248;28;6871;-75
2022/05/22 08:38:08;;;;;;;;;;;;;;;28.26;36.57;100573.84;5005052;28;7215;-75
2022/05/22 08:40:56;;;;;;;;;;;;;;;28.62;35.84;100579.16;5005956;28;6989;-75
2022/05/22 08:43:33;;;;;;;;;;;;;;;28.94;35.33;100564.31;5005038;28;6827;-75
2022/05/22 08:46:06;;;;;;;;;;;;;;;29.39;34.57;100564.88;5001387;28;7007;-75
2022/05/22 08:49:26;;;;;;;;;;;;;;;29.98;34.79;100557.03;5006589;28;6796;-75
2022/05/22 08:52:03;;;;;;;;;;;;;;;30.61;33.78;100551.56;5000360;28;6900;-75
2022/05/22 08:54:41;;;;;;;;;;;;;;;31.03;32.79;100542.22;4989854;28;6980;-75
2022/05/22 09:00:19;;;;;;;;;;;;;;;31.21;31.65;100539.84;4995370;28;7307;-75
2022/05/22 09:03:14;;;;;;;;;;;;;;;31.05;31.06;100532.44;5005589;28;6779;-75
2022/05/22 09:05:40;;;;;;;;;;;;;;;31.01;31.72;100533.47;4993445;28;6954;-75
2022/05/22 09:08:23;;;;;;;;;;;;;;;31.14;31.19;100532.09;5005226;28;6804;-75
2022/05/22 09:11:21;;;;;;;;;;;;;;;31.46;31.06;100534.53;5005863;28;6800;-75
2022/05/22 09:14:30;;;;;;;;;;;;;;;31.68;30.33;100531.06;5002397;28;7031;-75
2022/05/22 09:17:22;;;;;;;;;;;;;;;31.63;30.20;100530.34;4992101;28;6884;-75
2022/05/22 09:20:34;;;;;;;;;;;;;;;31.59;29.65;100534.94;5005446;28;6903;-75
2022/05/22 09:23:48;;;;;;;;;;;;;;;31.63;29.77;100523.28;5001154;28;6985;-75
2022/05/22 09:26:41;;;;;;;;;;;;;;;31.78;29.78;100527.13;5002986;28;6812;-75
2022/05/22 09:29:31;;;;;;;;;;;;;;;32.11;29.89;100524.09;5019333;28;6815;-75
2022/05/22 09:32:38;;;;;;;;;;;;;;;32.60;29.59;100519.50;5002684;28;7102;-75
2022/05/22 09:35:25;;;;;;;;;;;;;;;32.92;29.13;100506.63;5001225;28;6819;-75
2022/05/22 09:38:15;;;;;;;;;;;;;;;33.02;28.92;100513.25;5005012;28;6816;-75
2022/05/22 09:41:13;;;;;;;;;;;;;;;33.37;28.81;100512.63;5015041;28;6876;-74
2022/05/22 09:44:02;;;;;;;;;;;;;;;34.11;28.28;100508.28;5004704;28;6978;-74
2022/05/22 09:47:15;;;;;;;;;;;;;;;34.79;27.86;100503.16;5000152;28;7071;-74
2022/05/22 09:50:20;;;;;;;;;;;;;;;35.28;27.19;100495.22;5005930;28;6887;-74
2022/05/22 09:53:25;;;;;;;;;;;;;;;35.62;25.87;100502.31;5006949;28;6969;-74
2022/05/22 09:55:51;;;;;;;;;;;;;;;35.53;25.11;100501.84;5014268;28;6823;-74
2022/05/22 09:58:35;;;;;;;;;;;;;;;34.90;24.98;100498.13;5007894;28;7187;-74
2022/05/22 10:01:11;;;;;;;;;;;;;;;34.22;25.89;100507.72;5003300;28;7908;-74
2022/05/22 10:04:14;;;;;;;;;;;;;;;34.28;25.82;100503.91;5000475;28;6815;-74
2022/05/22 10:06:58;;;;;;;;;;;;;;;34.63;26.33;100509.28;5001345;28;7134;-74
2022/05/22 10:09:37;;;;;;;;;;;;;;;35.09;25.24;100503.34;5019918;28;6819;-74
2022/05/22 10:12:55;;;;;;;;;;;;;;;35.20;25.26;100504.56;5006227;28;6835;-74
2022/05/22 10:15:59;;;;;;;;;;;;;;;35.35;24.57;100508.19;5004296;28;6871;-74
2022/05/22 10:18:58;;;;;;;;;;;;;;;35.44;24.43;100497.03;4988962;28;7135;-74
2022/05/22 10:21:31;;;;;;;;;;;;;;;35.59;24.61;100503.38;4999973;28;7177;-74
2022/05/22 10:24:32;;;;;;;;;;;;;;;35.64;24.60;100495.06;5005620;28;7090;-73
2022/05/22 10:27:21;;;;;;;;;;;;;;;35.91;24.54;100498.00;5000081;28;7083;-73
2022/05/22 10:29:59;;;;;;;;;;;;;;;36.46;24.11;100492.19;5004031;28;7154;-73
2022/05/22 10:32:40;;;;;;;;;;;;;;;36.82;24.15;100478.44;5003806;28;7201;-74
2022/05/22 10:35:45;;;;;;;;;;;;;;;37.00;22.91;100482.75;5005670;28;6815;-74
2022/05/22 10:38:30;;;;;;;;;;;;;;;36.67;22.74;100479.41;5005225;28;7058;-74
2022/05/22 10:43:52;;;;;;;;;;;;;;;35.99;23.38;100468.22;5005769;28;6887;-74
2022/05/22 10:46:18;;;;;;;;;;;;;;;35.93;23.14;100480.09;5004184;28;6823;-74
2022/05/22 10:48:55;;;;;;;;;;;;;;;35.80;22.39;100476.44;5003837;28;7000;-74
2022/05/22 10:51:28;;;;;;;;;;;;;;;35.86;23.59;100468.94;4998271;28;7300;-74
2022/05/22 10:54:00;;;;;;;;;;;;;;;36.24;23.04;100461.47;5005244;28;6804;-74
2022/05/22 10:56:31;;;;;;;;;;;;;;;36.60;22.33;100451.38;5004300;28;6800;-74
2022/05/22 10:59:04;;;;;;;;;;;;;;;36.86;22.50;100439.06;5006504;28;6804;-74
2022/05/22 11:01:37;;;;;;;;;;;;;;;37.19;22.57;100437.94;5002089;28;7195;-74
2022/05/22 11:04:14;;;;;;;;;;;;;;;37.61;22.38;100426.38;5004656;28;7062;-74
2022/05/22 11:06:57;;;;;;;;;;;;;;;38.13;21.83;100416.72;4990220;28;6808;-74
2022/05/22 11:09:34;;;;;;;;;;;;;;;38.43;21.59;100422.69;5003538;28;6804;-74
2022/05/22 11:12:25;;;;;;;;;;;;;;;38.56;21.22;100415.56;4989116;28;6804;-74
2022/05/22 11:15:07;;;;;;;;;;;;;;;38.75;21.20;100414.28;5001282;28;6815;-73
2022/05/22 11:17:33;;;;;;;;;;;;;;;38.96;21.39;100408.38;4995584;28;6823;-73
2022/05/22 11:20:18;;;;;;;;;;;;;;;39.20;20.99;100420.94;5002409;28;6887;-73
2022/05/22 11:23:32;;;;;;;;;;;;;;;39.47;20.80;100417.22;4991260;28;6816;-74
2022/05/22 11:26:41;;;;;;;;;;;;;;;39.95;20.43;100401.09;4994176;28;6832;-74
2022/05/22 11:29:18;;;;;;;;;;;;;;;40.24;19.97;100406.03;4993653;28;7556;-74
2022/05/22 11:32:11;;;;;;;;;;;;;;;40.29;19.74;100403.00;4998824;28;6820;-73
2022/05/22 11:35:15;;;;;;;;;;;;;;;40.27;19.41;100405.81;5006108;28;6804;-73
2022/05/22 11:37:56;;;;;;;;;;;;;;;40.03;18.70;100397.81;5004039;28;6812;-73
2022/05/22 11:41:00;;;;;;;;;;;;;;;39.80;19.39;100387.00;5004960;28;6792;-73
2022/05/22 11:43:47;;;;;;;;;;;;;;;39.72;19.27;100390.28;4999980;28;7010;-73
2022/05/22 11:46:33;;;;;;;;;;;;;;;39.49;19.50;100383.09;5019091;28;7010;-75
2022/05/22 11:49:22;;;;;;;;;;;;;;;39.23;19.19;100380.53;4977523;28;6824;-73
2022/05/22 11:55:47;;;;;;;;;;;;;;;38.32;19.69;100368.13;5004025;28;6903;-73
2022/05/22 11:58:34;;;;;;;;;;;;;;;38.29;19.59;100356.75;4999998;28;6877;-74
2022/05/22 12:01:21;;;;;;;;;;;;;;;38.34;19.25;100346.63;5004217;28;6819;-74
2022/05/22 12:04:08;;;;;;;;;;;;;;;38.28;19.07;100341.69;5002197;28;6808;-74
2022/05/22 12:07:26;;;;;;;;;;;;;;;38.18;19.70;100333.47;5001007;28;7046;-74
2022/05/22 12:09:59;;;;;;;;;;;;;;;38.29;19.35;100330.00;5000788;28;7264;-74
2022/05/22 12:12:52;;;;;;;;;;;;;;;38.21;19.16;100322.53;5002151;28;6902;-74
2022/05/22 12:15:57;;;;;;;;;;;;;;;38.02;19.21;100320.31;5001659;28;6892;-73
2022/05/22 12:18:38;;;;;;;;;;;;;;;37.83;18.99;100307.31;5006353;28;6812;-74
2022/05/22 12:21:49;;;;;;;;;;;;;;;37.83;19.48;100308.19;5002760;28;6815;-74
2022/05/22 12:24:59;;;;;;;;;;;;;;;37.83;19.24;100302.84;5004006;28;7952;-74
2022/05/22 12:27:33;;;;;;;;;;;;;;;37.56;19.22;100308.22;5003415;28;6828;-74
2022/05/22 12:30:12;;;;;;;;;;;;;;;37.16;19.74;100306.41;5003625;28;6807;-74
2022/05/22 12:32:51;;;;;;;;;;;;;;;36.77;19.49;100311.50;5002369;28;6965;-74
2022/05/22 12:35:18;;;;;;;;;;;;;;;36.60;19.75;100313.44;4993535;28;6816;-74
2022/05/22 12:38:02;;;;;;;;;;;;;;;36.55;20.39;100303.06;4995380;28;6816;-74
2022/05/22 12:40:58;;;;;;;;;;;;;;;36.76;20.76;100296.47;5000199;28;7176;-74
2022/05/22 12:43:26;;;;;;;;;;;;;;;36.93;20.08;100298.03;4996182;28;7023;-74
2022/05/22 12:46:04;;;;;;;;;;;;;;;36.99;20.25;100294.97;5003522;28;7145;-74
2022/05/22 12:48:33;;;;;;;;;;;;;;;37.01;20.29;100297.53;5001422;28;6966;-74
2022/05/22 12:51:09;;;;;;;;;;;;;;;36.94;19.72;100299.72;5015953;28;6811;-74
2022/05/22 12:53:41;;;;;;;;;;;;;;;37.03;19.78;100288.44;4998662;28;6884;-74
2022/05/22 12:56:28;;;;;;;;;;;;;;;37.23;20.09;100281.84;4990134;28;6984;-74
2022/05/22 12:59:00;;;;;;;;;;;;;;;37.36;20.17;100275.66;5001124;28;6795;-74
2022/05/22 13:01:37;;;;;;;;;;;;;;;37.59;19.65;100265.28;4987377;28;7240;-74
2022/05/22 13:04:15;;;;;;;;;;;;;;;37.81;19.55;100261.13;5000018;28;6796;-74
2022/05/22 13:06:58;;;;;;;;;;;;;;;37.84;20.05;100260.88;5000819;28;6804;-75
2022/05/22 13:09:51;;;;;;;;;;;;;;;37.72;19.73;100258.13;4986467;28;6796;-75
2022/05/22 13:12:16;;;;;;;;;;;;;;;37.48;19.13;100250.81;5001355;28;6815;-75
2022/05/22 13:14:48;;;;;;;;;;;;;;;37.29;19.79;100245.84;4999897;28;7066;-74
2022/05/22 13:17:32;;;;;;;;;;;;;;;37.14;19.74;100242.38;5001260;28;7044;-74
2022/05/22 13:20:03;;;;;;;;;;;;;;;37.06;20.03;100242.03;4997107;28;6892;-74
2022/05/22 13:22:36;;;;;;;;;;;;;;;36.90;19.40;100240.38;5002595;28;7149;-74
2022/05/22 13:25:07;;;;;;;;;;;;;;;36.76;19.66;100241.28;4996165;28;6883;-74
2022/05/22 13:27:40;;;;;;;;;;;;;;;36.65;20.19;100225.94;5001438;28;6820;-74
2022/05/22 13:30:06;;;;;;;;;;;;;;;36.66;19.89;100224.97;5000325;28;7027;-74
2022/05/22 13:32:46;;;;;;;;;;;;;;;36.61;19.79;100229.78;5000436;28;6807;-74
2022/05/22 13:35:24;;;;;;;;;;;;;;;36.29;19.75;100229.97;4999633;28;7086;-74
2022/05/22 13:37:54;;;;;;;;;;;;;;;35.97;20.23;100227.50;4998929;28;7864;-74